Kimberlin Heights, Tennessee
Current Conditions -  °F | °C
As of 7:53 PM on Thursday 18 Dec 2014 (Local Time) from KTYS Reporting Station
Overcast Overcast  
Wind Chill:   Ceiling: 5000
Heat Index:   Visibility: 10mi
Dew Point: -1°   Wind: 0mph
Humidity: 60%   Direction: NA
Pressure: 30.16"   Gusts: NA
Location:  35.9105°N, 83.8544°W
Report Text: KTYS 190053Z 00000KT 10SM OVC050 06/M01 A3016 RMK AO2 SLP217 T00611011
Loading
Personal Weather Stations






























Interactive Weather Map New forecast layout! Learn more

10-Day Weather Forecast

Advertisements
Track Severe Weather on mobile